createdAt,value
2023-06-25T00:01:41.228Z,94709.40
2023-06-25T00:04:07.616Z,94709.00
2023-06-25T00:06:33.777Z,94706.80
2023-06-25T00:08:59.917Z,94704.20
2023-06-25T00:11:26.084Z,94701.60
2023-06-25T00:13:54.231Z,94699.40
2023-06-25T00:16:20.792Z,94706.20
2023-06-25T00:18:47.764Z,94704.80
2023-06-25T00:21:14.076Z,94700.40
2023-06-25T00:23:40.236Z,94703.20
2023-06-25T00:26:06.432Z,94700.60
2023-06-25T00:28:32.519Z,94694.60
2023-06-25T00:30:58.826Z,94693.20
2023-06-25T00:33:25.041Z,94698.20
2023-06-25T00:35:51.154Z,94699.20
2023-06-25T00:38:17.355Z,94699.60
2023-06-25T00:40:43.672Z,94695.60
2023-06-25T00:43:10.073Z,94695.40
2023-06-25T00:45:36.310Z,94695.40
2023-06-25T00:48:02.574Z,94697.00
2023-06-25T00:50:28.756Z,94691.20
2023-06-25T00:52:57.489Z,94696.00
2023-06-25T00:55:23.697Z,94689.20
2023-06-25T00:57:52.400Z,94685.20
2023-06-25T01:00:18.750Z,94680.40
2023-06-25T01:02:46.881Z,94684.40
2023-06-25T01:05:13.285Z,94680.80
2023-06-25T01:07:39.443Z,94680.20
2023-06-25T01:10:05.718Z,94679.60
2023-06-25T01:12:32.440Z,94678.20
2023-06-25T01:14:59.804Z,94676.40
2023-06-25T01:17:26.983Z,94676.60
2023-06-25T01:19:53.203Z,94676.80
2023-06-25T01:22:19.430Z,94680.80
2023-06-25T01:24:45.611Z,94677.80
2023-06-25T01:27:11.805Z,94677.00
2023-06-25T01:29:38.643Z,94669.40
2023-06-25T01:32:06.696Z,94668.00
2023-06-25T01:34:33.007Z,94667.40
2023-06-25T01:36:59.132Z,94665.20
2023-06-25T01:39:25.870Z,94667.00
2023-06-25T01:41:52.019Z,94666.80
2023-06-25T01:44:19.969Z,94663.00
2023-06-25T01:46:47.749Z,94664.00
2023-06-25T01:49:23.045Z,94664.20
2023-06-25T01:51:57.024Z,94662.80
2023-06-25T01:54:23.352Z,94664.80
2023-06-25T01:56:49.504Z,94664.40
2023-06-25T01:59:15.775Z,94662.60
2023-06-25T02:01:42.037Z,94658.00
2023-06-25T02:04:08.437Z,94654.00
2023-06-25T02:06:34.798Z,94651.00
2023-06-25T02:09:00.961Z,94653.00
2023-06-25T02:11:27.166Z,94654.40
2023-06-25T02:13:53.427Z,94652.20
2023-06-25T02:16:19.668Z,94650.60
2023-06-25T02:18:45.901Z,94654.40
2023-06-25T02:21:12.287Z,94654.40
2023-06-25T02:23:38.447Z,94650.80
2023-06-25T02:26:05.048Z,94650.40
2023-06-25T02:28:31.235Z,94651.40
2023-06-25T02:30:57.443Z,94655.00
2023-06-25T02:33:23.613Z,94658.20
2023-06-25T02:35:49.809Z,94659.20
2023-06-25T02:38:15.986Z,94658.20
2023-06-25T02:40:42.114Z,94660.20
2023-06-25T02:43:08.304Z,94660.20
2023-06-25T02:45:34.655Z,94658.40
2023-06-25T02:48:00.963Z,94661.60
2023-06-25T02:50:27.237Z,94659.80
2023-06-25T02:52:53.403Z,94660.40
2023-06-25T02:55:19.868Z,94657.80
2023-06-25T02:57:46.060Z,94658.80
2023-06-25T03:00:12.306Z,94660.00
2023-06-25T03:02:38.619Z,94663.40
2023-06-25T03:05:04.939Z,94659.60
2023-06-25T03:07:31.053Z,94658.00
2023-06-25T03:09:57.498Z,94659.40
2023-06-25T03:12:23.778Z,94659.80
2023-06-25T03:14:50.024Z,94659.20
2023-06-25T03:17:16.314Z,94659.20
2023-06-25T03:19:42.556Z,94660.80
2023-06-25T03:22:08.697Z,94651.20
2023-06-25T03:24:35.669Z,94652.40
2023-06-25T03:27:02.512Z,94653.40
2023-06-25T03:29:28.599Z,94652.40
2023-06-25T03:31:54.800Z,94651.60
2023-06-25T03:34:20.936Z,94649.20
2023-06-25T03:36:47.066Z,94652.40
2023-06-25T03:39:13.350Z,94648.60
2023-06-25T03:41:39.518Z,94648.20
2023-06-25T03:44:05.665Z,94644.80
2023-06-25T03:46:31.842Z,94641.80
2023-06-25T03:48:58.022Z,94640.00
2023-06-25T03:51:24.161Z,94636.60
2023-06-25T03:53:50.330Z,94635.80
2023-06-25T03:56:16.680Z,94632.20
2023-06-25T03:58:42.819Z,94631.40
2023-06-25T04:01:09.033Z,94632.60
2023-06-25T04:03:35.251Z,94633.20
2023-06-25T04:06:01.393Z,94631.60
2023-06-25T04:08:27.632Z,94631.00
2023-06-25T04:10:53.882Z,94636.40
2023-06-25T04:13:20.040Z,94630.80
2023-06-25T04:15:46.487Z,94632.60
2023-06-25T04:18:12.652Z,94633.00
2023-06-25T04:20:38.781Z,94626.40
2023-06-25T04:23:05.182Z,94625.40
2023-06-25T04:25:31.643Z,94628.20
2023-06-25T04:27:58.242Z,94627.80
2023-06-25T04:30:24.510Z,94624.40
2023-06-25T04:32:51.012Z,94620.40
2023-06-25T04:35:17.301Z,94621.00
2023-06-25T04:37:43.436Z,94625.20
2023-06-25T04:40:09.680Z,94630.40
2023-06-25T04:42:35.812Z,94631.80
2023-06-25T04:45:02.000Z,94634.60
2023-06-25T04:47:28.391Z,94633.20
2023-06-25T04:49:54.545Z,94632.60
2023-06-25T04:52:20.745Z,94632.40
2023-06-25T04:54:46.938Z,94632.80
2023-06-25T04:57:13.292Z,94629.80
2023-06-25T04:59:39.419Z,94626.40
2023-06-25T05:02:05.630Z,94621.60
2023-06-25T05:04:31.781Z,94621.20
2023-06-25T05:06:57.893Z,94622.60
2023-06-25T05:09:24.568Z,94623.60
2023-06-25T05:11:50.807Z,94626.00
2023-06-25T05:14:17.539Z,94629.20
2023-06-25T05:16:43.676Z,94630.80
2023-06-25T05:19:09.780Z,94628.20
2023-06-25T05:21:36.338Z,94626.60
2023-06-25T05:24:03.814Z,94629.00
2023-06-25T05:26:30.020Z,94629.60
2023-06-25T05:28:56.677Z,94631.40
2023-06-25T05:31:23.003Z,94632.20
2023-06-25T05:33:49.207Z,94631.80
2023-06-25T05:36:15.483Z,94629.60
2023-06-25T05:38:41.759Z,94632.80
2023-06-25T05:41:07.961Z,94633.00
2023-06-25T05:43:34.118Z,94633.40
2023-06-25T05:46:00.262Z,94633.60
2023-06-25T05:48:26.370Z,94632.20
2023-06-25T05:50:52.485Z,94632.80
2023-06-25T05:53:18.631Z,94633.20
2023-06-25T05:55:44.927Z,94636.80
2023-06-25T05:58:11.608Z,94639.60
2023-06-25T06:00:37.759Z,94637.40
2023-06-25T06:03:03.921Z,94628.20
2023-06-25T06:05:30.384Z,94625.20
2023-06-25T06:07:56.566Z,94622.80
2023-06-25T06:10:22.701Z,94625.00
2023-06-25T06:12:48.877Z,94622.80
2023-06-25T06:15:16.430Z,94623.80
2023-06-25T06:17:42.710Z,94620.00
2023-06-25T06:20:09.141Z,94614.00
2023-06-25T06:22:35.285Z,94616.80
2023-06-25T06:25:01.422Z,94618.40
2023-06-25T06:27:28.244Z,94621.60
2023-06-25T06:29:54.433Z,94624.60
2023-06-25T06:32:20.613Z,94628.80
2023-06-25T06:34:46.816Z,94625.20
2023-06-25T06:37:12.993Z,94627.00
2023-06-25T06:39:39.112Z,94626.20
2023-06-25T06:42:05.331Z,94630.00
2023-06-25T06:44:31.517Z,94629.00
2023-06-25T06:46:57.700Z,94629.00
2023-06-25T06:49:24.160Z,94629.20
2023-06-25T06:51:50.409Z,94631.20
2023-06-25T06:54:16.538Z,94628.80
2023-06-25T06:56:42.769Z,94630.20
2023-06-25T06:59:09.036Z,94632.60
2023-06-25T07:01:35.304Z,94632.60
2023-06-25T07:04:01.531Z,94626.00
2023-06-25T07:06:27.713Z,94629.20
2023-06-25T07:08:53.843Z,94629.60
2023-06-25T07:11:20.357Z,94625.80
2023-06-25T07:13:46.651Z,94625.20
2023-06-25T07:16:12.886Z,94621.20
2023-06-25T07:18:39.079Z,94620.80
2023-06-25T07:21:06.255Z,94620.80
2023-06-25T07:23:32.346Z,94625.60
2023-06-25T07:25:58.532Z,94616.00
2023-06-25T07:28:24.891Z,94613.00
2023-06-25T07:30:51.090Z,94615.40
2023-06-25T07:33:17.398Z,94608.40
2023-06-25T07:35:43.677Z,94606.00
2023-06-25T07:38:10.138Z,94611.00
2023-06-25T07:40:36.501Z,94602.80
2023-06-25T07:43:03.152Z,94603.00
2023-06-25T07:45:29.480Z,94595.80
2023-06-25T07:47:55.636Z,94598.80
2023-06-25T07:50:21.791Z,94597.40
2023-06-25T07:52:48.127Z,94596.20
2023-06-25T07:55:14.278Z,94595.40
2023-06-25T07:57:40.430Z,94591.40
2023-06-25T08:00:06.687Z,94593.00
2023-06-25T08:02:32.888Z,94596.20
2023-06-25T08:04:59.240Z,94596.40
2023-06-25T08:07:25.625Z,94596.20
2023-06-25T08:09:54.376Z,94592.80
2023-06-25T08:12:25.787Z,94591.20
2023-06-25T08:14:52.034Z,94589.20
2023-06-25T08:17:18.184Z,94590.20
2023-06-25T08:19:44.452Z,94585.40
2023-06-25T08:22:10.723Z,94583.60
2023-06-25T08:24:36.880Z,94580.80
2023-06-25T08:27:03.127Z,94583.60
2023-06-25T08:29:30.180Z,94583.00
2023-06-25T08:31:56.349Z,94578.60
2023-06-25T08:34:22.753Z,94575.80
2023-06-25T08:36:48.995Z,94581.80
2023-06-25T08:39:15.158Z,94576.60
2023-06-25T08:41:41.428Z,94570.80
2023-06-25T08:44:07.690Z,94575.80
2023-06-25T08:46:34.010Z,94573.40
2023-06-25T08:49:00.443Z,94578.00
2023-06-25T08:51:26.663Z,94575.80
2023-06-25T08:53:52.954Z,94574.80
2023-06-25T08:56:19.564Z,94570.00
2023-06-25T08:58:45.695Z,94570.20
2023-06-25T09:01:14.885Z,94567.20
2023-06-25T09:03:42.155Z,94570.00
2023-06-25T09:06:08.306Z,94564.80
2023-06-25T09:08:34.576Z,94567.80
2023-06-25T09:11:00.777Z,94561.80
2023-06-25T09:13:26.946Z,94564.00
2023-06-25T09:15:53.582Z,94565.20
2023-06-25T09:18:20.725Z,94564.20
2023-06-25T09:20:47.879Z,94562.40
2023-06-25T09:23:14.438Z,94555.80
2023-06-25T09:25:40.679Z,94555.00
2023-06-25T09:28:06.966Z,94561.80
2023-06-25T09:30:33.131Z,94560.80
2023-06-25T09:32:59.425Z,94560.40
2023-06-25T09:35:26.039Z,94561.00
2023-06-25T09:37:52.594Z,94560.60
2023-06-25T09:40:18.765Z,94565.60
2023-06-25T09:42:47.726Z,94566.60
2023-06-25T09:45:14.541Z,94564.80
2023-06-25T09:47:40.764Z,94558.40
2023-06-25T09:50:06.929Z,94559.00
2023-06-25T09:52:33.222Z,94554.00
2023-06-25T09:54:59.510Z,94542.80
2023-06-25T09:57:26.493Z,94547.00
2023-06-25T09:59:52.622Z,94550.00
2023-06-25T10:02:19.280Z,94557.20
2023-06-25T10:04:45.711Z,94556.00
2023-06-25T10:07:12.138Z,94552.00
2023-06-25T10:09:38.371Z,94547.00
2023-06-25T10:12:04.576Z,94538.00
2023-06-25T10:14:30.846Z,94538.20
2023-06-25T10:16:57.120Z,94535.60
2023-06-25T10:19:23.415Z,94531.80
2023-06-25T10:21:50.033Z,94532.00
2023-06-25T10:24:16.198Z,94536.80
2023-06-25T10:26:42.383Z,94534.00
2023-06-25T10:29:08.621Z,94534.40
2023-06-25T10:31:34.957Z,94532.20
2023-06-25T10:34:01.152Z,94534.20
2023-06-25T10:36:27.382Z,94534.20
2023-06-25T10:38:53.572Z,94534.40
2023-06-25T10:41:20.114Z,94529.00
2023-06-25T10:43:46.465Z,94528.60
2023-06-25T10:46:12.627Z,94533.20
2023-06-25T10:48:38.797Z,94535.20
2023-06-25T10:51:05.192Z,94535.40
2023-06-25T10:53:31.421Z,94533.80
2023-06-25T10:55:57.594Z,94532.20
2023-06-25T10:58:23.918Z,94529.60
2023-06-25T11:00:50.098Z,94529.40
2023-06-25T11:03:16.604Z,94526.40
2023-06-25T11:05:42.928Z,94520.00
2023-06-25T11:08:09.139Z,94524.60
2023-06-25T11:10:35.246Z,94521.40
2023-06-25T11:13:02.329Z,94518.40
2023-06-25T11:15:28.514Z,94522.20
2023-06-25T11:17:54.747Z,94518.60
2023-06-25T11:20:20.884Z,94509.00
2023-06-25T11:22:47.021Z,94514.80
2023-06-25T11:25:13.744Z,94514.20
2023-06-25T11:27:39.936Z,94507.80
2023-06-25T11:30:07.447Z,94507.20
2023-06-25T11:32:33.664Z,94504.80
2023-06-25T11:34:59.993Z,94514.60
2023-06-25T11:37:28.398Z,94510.20
2023-06-25T11:39:54.680Z,94506.00
2023-06-25T11:42:20.866Z,94502.40
2023-06-25T11:44:47.248Z,94501.00
2023-06-25T11:47:13.369Z,94498.40
2023-06-25T11:49:39.720Z,94494.80
2023-06-25T11:52:06.023Z,94499.00
2023-06-25T11:54:32.145Z,94491.80
2023-06-25T11:56:58.288Z,94487.20
2023-06-25T11:59:24.494Z,94485.80
2023-06-25T12:01:50.759Z,94490.80
2023-06-25T12:04:18.445Z,94488.80
2023-06-25T12:06:44.717Z,94488.80
2023-06-25T12:09:10.885Z,94481.60
2023-06-25T12:11:38.110Z,94477.60
2023-06-25T12:14:04.296Z,94476.40
2023-06-25T12:16:32.332Z,94477.80
2023-06-25T12:18:58.722Z,94473.80
2023-06-25T12:21:25.537Z,94467.60
2023-06-25T12:23:51.722Z,94465.40
2023-06-25T12:26:17.939Z,94467.00
2023-06-25T12:28:44.152Z,94466.00
2023-06-25T12:31:10.360Z,94465.80
2023-06-25T12:33:36.474Z,94466.00
2023-06-25T12:36:02.654Z,94462.60
2023-06-25T12:38:28.838Z,94464.40
2023-06-25T12:40:57.318Z,94460.00
2023-06-25T12:43:23.504Z,94462.80
2023-06-25T12:45:51.111Z,94460.80
2023-06-25T12:48:17.413Z,94452.40
2023-06-25T12:50:43.664Z,94456.60
2023-06-25T12:53:09.774Z,94454.20
2023-06-25T12:55:36.233Z,94457.20
2023-06-25T12:58:02.627Z,94449.20
2023-06-25T13:00:43.064Z,94453.20
2023-06-25T13:03:15.266Z,94449.00
2023-06-25T13:05:41.690Z,94454.00
2023-06-25T13:08:07.805Z,94456.20
2023-06-25T13:10:33.970Z,94459.00
2023-06-25T13:13:00.656Z,94468.00
2023-06-25T13:15:26.838Z,94467.20
2023-06-25T13:17:53.169Z,94473.80
2023-06-25T13:20:19.309Z,94475.20
2023-06-25T13:22:45.419Z,94470.80
2023-06-25T13:25:11.638Z,94469.20
2023-06-25T13:27:37.854Z,94465.80
2023-06-25T13:30:04.140Z,94459.60
2023-06-25T13:32:30.391Z,94455.40
2023-06-25T13:34:56.693Z,94454.60
2023-06-25T13:37:22.824Z,94455.20
2023-06-25T13:39:49.033Z,94460.60
2023-06-25T13:42:15.305Z,94459.40
2023-06-25T13:44:41.547Z,94453.40
2023-06-25T13:47:08.221Z,94456.40
2023-06-25T13:49:34.355Z,94457.40
2023-06-25T13:52:00.876Z,94459.00
2023-06-25T13:54:27.117Z,94458.80
2023-06-25T13:56:55.266Z,94457.80
2023-06-25T13:59:23.141Z,94454.20
2023-06-25T14:01:49.249Z,94453.40
2023-06-25T14:04:15.429Z,94449.20
2023-06-25T14:06:41.866Z,94455.40
2023-06-25T14:09:08.242Z,94454.40
2023-06-25T14:11:34.791Z,94451.00
2023-06-25T14:14:00.919Z,94443.80
2023-06-25T14:16:32.258Z,94441.40
2023-06-25T14:18:58.380Z,94436.60
2023-06-25T14:21:24.506Z,94444.60
2023-06-25T14:23:50.668Z,94442.20
2023-06-25T14:26:16.781Z,94443.20
2023-06-25T14:28:42.978Z,94443.60
2023-06-25T14:31:09.946Z,94440.60
2023-06-25T14:33:36.311Z,94441.20
2023-06-25T14:36:02.610Z,94443.60
2023-06-25T14:38:29.642Z,94447.00
2023-06-25T14:40:55.768Z,94446.80
2023-06-25T14:43:22.028Z,94449.00
2023-06-25T14:45:48.250Z,94451.80
2023-06-25T14:48:14.473Z,94448.80
2023-06-25T14:50:40.625Z,94446.60
2023-06-25T14:53:06.776Z,94443.80
2023-06-25T14:55:39.199Z,94445.60
2023-06-25T14:58:11.670Z,94443.40
2023-06-25T15:00:37.840Z,94443.00
2023-06-25T15:03:04.148Z,94445.00
2023-06-25T15:05:30.529Z,94443.80
2023-06-25T15:07:56.807Z,94445.00
2023-06-25T15:10:22.889Z,94440.20
2023-06-25T15:12:49.086Z,94437.20
2023-06-25T15:15:15.253Z,94429.40
2023-06-25T15:17:41.554Z,94426.20
2023-06-25T15:20:07.978Z,94421.80
2023-06-25T15:22:34.127Z,94424.40
2023-06-25T15:25:00.277Z,94423.60
2023-06-25T15:27:26.449Z,94422.80
2023-06-25T15:29:52.647Z,94422.40
2023-06-25T15:32:18.718Z,94417.80
2023-06-25T15:34:44.904Z,94422.80
2023-06-25T15:37:11.037Z,94422.60
2023-06-25T15:39:37.156Z,94424.00
2023-06-25T15:42:03.338Z,94424.00
2023-06-25T15:44:29.555Z,94423.80
2023-06-25T15:46:55.829Z,94424.00
2023-06-25T15:49:21.967Z,94423.40
2023-06-25T15:51:48.415Z,94421.80
2023-06-25T15:54:24.995Z,94417.20
2023-06-25T15:56:52.600Z,94423.00
2023-06-25T15:59:19.250Z,94422.60
2023-06-25T16:01:45.921Z,94420.60
2023-06-25T16:04:12.217Z,94420.20
2023-06-25T16:06:38.362Z,94419.00
2023-06-25T16:09:04.925Z,94418.60
2023-06-25T16:11:31.272Z,94419.00
2023-06-25T16:13:57.429Z,94420.20
2023-06-25T16:16:23.673Z,94422.80
2023-06-25T16:18:52.902Z,94419.20
2023-06-25T16:21:28.322Z,94419.80
2023-06-25T16:23:54.442Z,94415.00
2023-06-25T16:26:20.531Z,94415.40
2023-06-25T16:28:46.723Z,94415.60
2023-06-25T16:31:12.923Z,94412.60
2023-06-25T16:33:39.090Z,94413.60
2023-06-25T16:36:05.211Z,94412.80
2023-06-25T16:38:31.640Z,94412.80
2023-06-25T16:40:58.087Z,94413.40
2023-06-25T16:43:24.232Z,94412.60
2023-06-25T16:45:50.360Z,94413.80
2023-06-25T16:48:16.585Z,94408.80
2023-06-25T16:50:42.691Z,94413.60
2023-06-25T16:53:08.924Z,94413.40
2023-06-25T16:55:35.249Z,94414.40
2023-06-25T16:58:01.687Z,94416.80
2023-06-25T17:00:27.818Z,94417.80
2023-06-25T17:02:54.123Z,94414.60
2023-06-25T17:05:20.598Z,94414.80
2023-06-25T17:07:46.886Z,94416.80
2023-06-25T17:10:13.953Z,94415.60
2023-06-25T17:12:40.803Z,94416.60
2023-06-25T17:15:07.010Z,94416.60
2023-06-25T17:17:33.201Z,94414.40
2023-06-25T17:19:59.347Z,94412.80
2023-06-25T17:22:25.551Z,94412.80
2023-06-25T17:24:51.775Z,94408.80
2023-06-25T17:27:17.890Z,94409.80
2023-06-25T17:29:44.080Z,94410.00
2023-06-25T17:32:10.331Z,94404.80
2023-06-25T17:34:36.489Z,94405.60
2023-06-25T17:37:02.696Z,94406.00
2023-06-25T17:39:29.990Z,94403.80
2023-06-25T17:41:56.170Z,94403.00
2023-06-25T17:44:22.328Z,94402.00
2023-06-25T17:46:48.478Z,94403.60
2023-06-25T17:49:14.672Z,94398.80
2023-06-25T17:51:40.892Z,94400.60
2023-06-25T17:54:07.309Z,94399.40
2023-06-25T17:56:33.532Z,94402.20
2023-06-25T17:58:59.781Z,94400.00
2023-06-25T18:01:26.068Z,94399.60
2023-06-25T18:03:52.382Z,94402.00
2023-06-25T18:06:18.823Z,94399.80
2023-06-25T18:08:45.022Z,94399.40
2023-06-25T18:11:12.260Z,94400.20
2023-06-25T18:13:38.773Z,94402.60
2023-06-25T18:16:04.927Z,94407.80
2023-06-25T18:18:31.048Z,94408.40
2023-06-25T18:20:57.217Z,94408.60
2023-06-25T18:23:23.377Z,94409.20
2023-06-25T18:25:49.629Z,94411.40
2023-06-25T18:28:15.834Z,94410.60
2023-06-25T18:30:42.179Z,94413.60
2023-06-25T18:33:09.768Z,94413.80
2023-06-25T18:35:37.103Z,94415.80
2023-06-25T18:38:03.245Z,94420.40
2023-06-25T18:40:29.440Z,94420.60
2023-06-25T18:42:55.662Z,94421.80
2023-06-25T18:45:21.822Z,94420.80
2023-06-25T18:47:48.052Z,94426.20
2023-06-25T18:50:17.511Z,94428.20
2023-06-25T18:52:43.883Z,94426.20
2023-06-25T18:55:10.315Z,94430.40
2023-06-25T18:57:36.475Z,94429.20
2023-06-25T19:00:05.696Z,94433.00
2023-06-25T19:02:35.858Z,94436.20
2023-06-25T19:05:02.355Z,94439.40
2023-06-25T19:07:28.624Z,94436.60
2023-06-25T19:09:55.458Z,94440.60
2023-06-25T19:12:23.798Z,94440.60
2023-06-25T19:14:49.916Z,94437.60
2023-06-25T19:17:16.120Z,94439.20
2023-06-25T19:19:42.296Z,94443.20
2023-06-25T19:22:08.411Z,94448.40
2023-06-25T19:24:34.614Z,94446.60
2023-06-25T19:27:00.856Z,94444.80
2023-06-25T19:29:27.146Z,94444.00
2023-06-25T19:31:53.407Z,94447.00
2023-06-25T19:34:20.053Z,94445.00
2023-06-25T19:36:46.330Z,94446.60
2023-06-25T19:39:12.679Z,94448.60
2023-06-25T19:41:40.142Z,94451.00
2023-06-25T19:44:06.327Z,94454.00
2023-06-25T19:49:14.564Z,94453.80
2023-06-25T19:51:40.758Z,94459.80
2023-06-25T19:54:06.961Z,94461.60
2023-06-25T19:56:33.121Z,94460.40
2023-06-25T19:58:59.282Z,94457.20
2023-06-25T20:01:25.447Z,94458.00
2023-06-25T20:03:51.766Z,94456.80
2023-06-25T20:06:17.894Z,94455.80
2023-06-25T20:08:44.126Z,94454.40
2023-06-25T20:11:10.596Z,94456.60
2023-06-25T20:13:36.896Z,94458.80
2023-06-25T20:16:03.078Z,94458.00
2023-06-25T20:18:29.263Z,94459.60
2023-06-25T20:20:55.416Z,94465.00
2023-06-25T20:23:21.533Z,94463.20
2023-06-25T20:25:47.814Z,94464.00
2023-06-25T20:28:14.172Z,94458.80
2023-06-25T20:30:40.749Z,94463.60
2023-06-25T20:33:07.173Z,94460.80
2023-06-25T20:35:35.420Z,94461.40
2023-06-25T20:38:04.262Z,94462.80
2023-06-25T20:40:30.630Z,94460.20
2023-06-25T20:42:56.928Z,94459.20
2023-06-25T20:45:23.204Z,94462.20
2023-06-25T20:47:49.571Z,94463.80
2023-06-25T20:50:15.838Z,94468.20
2023-06-25T20:52:41.997Z,94469.00
2023-06-25T20:55:10.194Z,94468.60
2023-06-25T20:57:37.600Z,94463.40
2023-06-25T21:00:05.306Z,94468.00
2023-06-25T21:02:31.634Z,94466.60
2023-06-25T21:04:58.147Z,94466.60
2023-06-25T21:07:24.317Z,94466.80
2023-06-25T21:09:50.563Z,94472.20
2023-06-25T21:12:16.765Z,94471.60
2023-06-25T21:14:43.014Z,94468.80
2023-06-25T21:17:09.350Z,94467.00
2023-06-25T21:19:35.511Z,94467.60
2023-06-25T21:22:01.648Z,94473.20
2023-06-25T21:24:27.940Z,94471.40
2023-06-25T21:26:54.118Z,94472.20
2023-06-25T21:29:20.243Z,94471.80
2023-06-25T21:31:46.465Z,94472.40
2023-06-25T21:34:12.734Z,94473.40
2023-06-25T21:36:39.712Z,94475.60
2023-06-25T21:39:07.276Z,94475.80
2023-06-25T21:41:33.616Z,94475.60
2023-06-25T21:43:59.720Z,94474.00
2023-06-25T21:46:25.992Z,94475.80
2023-06-25T21:48:52.212Z,94478.40
2023-06-25T21:51:18.378Z,94479.80
2023-06-25T21:53:44.523Z,94477.80
2023-06-25T21:56:10.684Z,94481.60
2023-06-25T21:58:36.769Z,94479.60
2023-06-25T22:01:03.000Z,94479.80
2023-06-25T22:03:29.322Z,94477.80
2023-06-25T22:05:55.867Z,94474.40
2023-06-25T22:08:22.010Z,94471.20
2023-06-25T22:10:48.155Z,94465.60
2023-06-25T22:13:17.803Z,94466.20
2023-06-25T22:15:44.756Z,94465.00
2023-06-25T22:18:10.937Z,94464.00
2023-06-25T22:20:37.531Z,94465.00
2023-06-25T22:23:03.914Z,94466.20
2023-06-25T22:25:30.176Z,94467.20
2023-06-25T22:27:56.426Z,94464.80
2023-06-25T22:30:22.709Z,94465.00
2023-06-25T22:32:49.047Z,94465.40
2023-06-25T22:35:15.449Z,94467.40
2023-06-25T22:37:42.010Z,94464.80
2023-06-25T22:40:08.955Z,94466.80
2023-06-25T22:42:35.352Z,94466.20
2023-06-25T22:45:01.596Z,94464.40
2023-06-25T22:47:29.543Z,94465.60
2023-06-25T22:49:57.338Z,94462.40
2023-06-25T22:52:23.799Z,94459.40
2023-06-25T22:54:51.321Z,94456.20
2023-06-25T22:57:17.851Z,94450.80
2023-06-25T22:59:44.030Z,94449.40
2023-06-25T23:02:10.259Z,94447.60
2023-06-25T23:04:36.590Z,94446.60
2023-06-25T23:07:03.163Z,94446.80
2023-06-25T23:09:29.442Z,94441.60
2023-06-25T23:11:55.672Z,94442.80
2023-06-25T23:14:21.901Z,94443.00
2023-06-25T23:16:49.040Z,94436.20
2023-06-25T23:19:17.411Z,94438.40
2023-06-25T23:21:46.032Z,94438.80
2023-06-25T23:24:12.212Z,94440.80
2023-06-25T23:26:45.398Z,94437.80
2023-06-25T23:29:13.106Z,94437.80
2023-06-25T23:31:39.373Z,94437.40
2023-06-25T23:34:05.558Z,94440.60
2023-06-25T23:36:31.697Z,94439.60
2023-06-25T23:38:57.927Z,94435.60
2023-06-25T23:41:24.127Z,94438.20
2023-06-25T23:43:50.322Z,94435.00
2023-06-25T23:46:16.557Z,94431.60
2023-06-25T23:48:42.702Z,94434.00
2023-06-25T23:51:08.907Z,94433.40
2023-06-25T23:53:35.097Z,94430.00
2023-06-25T23:56:01.261Z,94430.60
2023-06-25T23:58:27.496Z,94434.60
